sensor_id;sensor_type;location;lat;lon;timestamp;temperature;humidity
19090;DHT22;9677;50.656;13.064;2023-09-12T00:01:31;22.20;48.40
19090;DHT22;9677;50.656;13.064;2023-09-12T00:03:59;22.30;48.50
19090;DHT22;9677;50.656;13.064;2023-09-12T00:06:28;22.10;48.30
19090;DHT22;9677;50.656;13.064;2023-09-12T00:08:56;22.10;48.40
19090;DHT22;9677;50.656;13.064;2023-09-12T00:11:24;22.00;48.30
19090;DHT22;9677;50.656;13.064;2023-09-12T00:13:53;22.00;48.30
19090;DHT22;9677;50.656;13.064;2023-09-12T00:16:22;22.50;48.50
19090;DHT22;9677;50.656;13.064;2023-09-12T00:18:52;22.30;48.50
19090;DHT22;9677;50.656;13.064;2023-09-12T00:21:20;22.00;48.50
19090;DHT22;9677;50.656;13.064;2023-09-12T00:23:49;22.00;48.30
19090;DHT22;9677;50.656;13.064;2023-09-12T00:26:17;21.90;48.50
19090;DHT22;9677;50.656;13.064;2023-09-12T00:28:47;21.90;48.60
19090;DHT22;9677;50.656;13.064;2023-09-12T00:31:15;21.90;48.60
19090;DHT22;9677;50.656;13.064;2023-09-12T00:33:43;21.90;48.60
19090;DHT22;9677;50.656;13.064;2023-09-12T00:36:13;21.80;48.60
19090;DHT22;9677;50.656;13.064;2023-09-12T00:38:41;22.20;48.90
19090;DHT22;9677;50.656;13.064;2023-09-12T00:41:10;21.70;48.70
19090;DHT22;9677;50.656;13.064;2023-09-12T00:43:38;21.70;48.60
19090;DHT22;9677;50.656;13.064;2023-09-12T00:46:07;21.70;48.70
19090;DHT22;9677;50.656;13.064;2023-09-12T00:48:36;21.50;48.50
19090;DHT22;9677;50.656;13.064;2023-09-12T00:51:07;21.70;48.90
19090;DHT22;9677;50.656;13.064;2023-09-12T00:53:37;21.60;48.80
19090;DHT22;9677;50.656;13.064;2023-09-12T00:56:06;21.60;48.90
19090;DHT22;9677;50.656;13.064;2023-09-12T00:58:34;21.60;48.90
19090;DHT22;9677;50.656;13.064;2023-09-12T01:01:03;21.50;48.90
19090;DHT22;9677;50.656;13.064;2023-09-12T01:03:32;21.60;49.00
19090;DHT22;9677;50.656;13.064;2023-09-12T01:06:02;21.50;49.00
19090;DHT22;9677;50.656;13.064;2023-09-12T01:08:30;21.50;49.00
19090;DHT22;9677;50.656;13.064;2023-09-12T01:11:00;21.40;49.00
19090;DHT22;9677;50.656;13.064;2023-09-12T01:13:29;21.40;49.10
19090;DHT22;9677;50.656;13.064;2023-09-12T01:15:57;21.40;49.10
19090;DHT22;9677;50.656;13.064;2023-09-12T01:18:26;21.30;49.10
19090;DHT22;9677;50.656;13.064;2023-09-12T01:21:20;21.30;49.10
19090;DHT22;9677;50.656;13.064;2023-09-12T01:24:15;21.30;49.50
19090;DHT22;9677;50.656;13.064;2023-09-12T01:27:17;21.30;49.40
19090;DHT22;9677;50.656;13.064;2023-09-12T01:29:51;21.20;49.50
19090;DHT22;9677;50.656;13.064;2023-09-12T01:32:21;21.20;49.20
19090;DHT22;9677;50.656;13.064;2023-09-12T01:34:50;21.40;49.30
19090;DHT22;9677;50.656;13.064;2023-09-12T01:37:18;21.20;49.30
19090;DHT22;9677;50.656;13.064;2023-09-12T01:39:46;21.20;49.30
19090;DHT22;9677;50.656;13.064;2023-09-12T01:42:18;21.80;49.60
19090;DHT22;9677;50.656;13.064;2023-09-12T01:44:50;21.10;49.50
19090;DHT22;9677;50.656;13.064;2023-09-12T01:47:23;21.00;49.40
19090;DHT22;9677;50.656;13.064;2023-09-12T01:49:55;21.00;49.40
19090;DHT22;9677;50.656;13.064;2023-09-12T01:52:25;21.00;49.50
19090;DHT22;9677;50.656;13.064;2023-09-12T01:54:55;21.00;49.50
19090;DHT22;9677;50.656;13.064;2023-09-12T01:57:26;20.90;49.50
19090;DHT22;9677;50.656;13.064;2023-09-12T01:59:54;20.90;49.50
19090;DHT22;9677;50.656;13.064;2023-09-12T02:02:23;20.90;49.50
19090;DHT22;9677;50.656;13.064;2023-09-12T02:05:00;20.90;49.60
19090;DHT22;9677;50.656;13.064;2023-09-12T02:07:36;21.10;49.90
19090;DHT22;9677;50.656;13.064;2023-09-12T02:10:06;20.80;49.80
19090;DHT22;9677;50.656;13.064;2023-09-12T02:12:37;20.80;49.70
19090;DHT22;9677;50.656;13.064;2023-09-12T02:15:07;20.80;49.70
19090;DHT22;9677;50.656;13.064;2023-09-12T02:17:36;20.80;49.80
19090;DHT22;9677;50.656;13.064;2023-09-12T02:20:07;20.80;49.80
19090;DHT22;9677;50.656;13.064;2023-09-12T02:22:36;20.70;49.80
19090;DHT22;9677;50.656;13.064;2023-09-12T02:25:05;20.80;49.80
19090;DHT22;9677;50.656;13.064;2023-09-12T02:27:35;20.70;49.80
19090;DHT22;9677;50.656;13.064;2023-09-12T02:30:06;20.70;49.80
19090;DHT22;9677;50.656;13.064;2023-09-12T02:32:35;20.70;49.90
19090;DHT22;9677;50.656;13.064;2023-09-12T02:35:04;20.70;49.80
19090;DHT22;9677;50.656;13.064;2023-09-12T02:37:32;20.60;49.80
19090;DHT22;9677;50.656;13.064;2023-09-12T02:40:02;20.60;49.80
19090;DHT22;9677;50.656;13.064;2023-09-12T02:42:33;20.60;49.80
19090;DHT22;9677;50.656;13.064;2023-09-12T02:45:07;22.00;50.20
19090;DHT22;9677;50.656;13.064;2023-09-12T02:47:37;20.50;49.90
19090;DHT22;9677;50.656;13.064;2023-09-12T02:50:07;20.40;49.60
19090;DHT22;9677;50.656;13.064;2023-09-12T02:52:37;20.40;49.80
19090;DHT22;9677;50.656;13.064;2023-09-12T02:55:06;21.40;50.30
19090;DHT22;9677;50.656;13.064;2023-09-12T02:57:34;20.40;50.00
19090;DHT22;9677;50.656;13.064;2023-09-12T03:00:03;20.40;50.00
19090;DHT22;9677;50.656;13.064;2023-09-12T03:02:36;20.40;50.10
19090;DHT22;9677;50.656;13.064;2023-09-12T03:05:04;20.30;50.10
19090;DHT22;9677;50.656;13.064;2023-09-12T03:07:33;20.30;50.10
19090;DHT22;9677;50.656;13.064;2023-09-12T03:10:01;20.30;50.10
19090;DHT22;9677;50.656;13.064;2023-09-12T03:12:30;20.20;50.10
19090;DHT22;9677;50.656;13.064;2023-09-12T03:14:59;20.20;50.20
19090;DHT22;9677;50.656;13.064;2023-09-12T03:17:28;20.20;50.20
19090;DHT22;9677;50.656;13.064;2023-09-12T03:19:58;20.20;50.30
19090;DHT22;9677;50.656;13.064;2023-09-12T03:22:27;20.20;50.40
19090;DHT22;9677;50.656;13.064;2023-09-12T03:24:55;20.10;50.30
19090;DHT22;9677;50.656;13.064;2023-09-12T03:27:23;20.10;50.30
19090;DHT22;9677;50.656;13.064;2023-09-12T03:29:51;20.10;50.40
19090;DHT22;9677;50.656;13.064;2023-09-12T03:32:20;20.00;50.30
19090;DHT22;9677;50.656;13.064;2023-09-12T03:34:48;20.20;50.50
19090;DHT22;9677;50.656;13.064;2023-09-12T03:37:18;20.00;50.40
19090;DHT22;9677;50.656;13.064;2023-09-12T03:39:46;19.90;50.40
19090;DHT22;9677;50.656;13.064;2023-09-12T03:42:14;19.90;50.40
19090;DHT22;9677;50.656;13.064;2023-09-12T03:44:42;19.80;50.40
19090;DHT22;9677;50.656;13.064;2023-09-12T03:47:11;19.80;50.50
19090;DHT22;9677;50.656;13.064;2023-09-12T03:49:39;19.80;50.60
19090;DHT22;9677;50.656;13.064;2023-09-12T03:52:07;19.80;50.70
19090;DHT22;9677;50.656;13.064;2023-09-12T03:54:37;19.70;50.60
19090;DHT22;9677;50.656;13.064;2023-09-12T03:57:05;19.70;50.70
19090;DHT22;9677;50.656;13.064;2023-09-12T03:59:34;19.70;50.70
19090;DHT22;9677;50.656;13.064;2023-09-12T04:02:02;19.60;50.70
19090;DHT22;9677;50.656;13.064;2023-09-12T04:04:32;19.60;50.90
19090;DHT22;9677;50.656;13.064;2023-09-12T04:07:00;19.60;50.90
19090;DHT22;9677;50.656;13.064;2023-09-12T04:09:30;19.60;50.90
19090;DHT22;9677;50.656;13.064;2023-09-12T04:12:00;19.50;50.90
19090;DHT22;9677;50.656;13.064;2023-09-12T04:14:28;19.50;51.00
19090;DHT22;9677;50.656;13.064;2023-09-12T04:16:56;19.50;51.00
19090;DHT22;9677;50.656;13.064;2023-09-12T04:19:26;19.50;51.10
19090;DHT22;9677;50.656;13.064;2023-09-12T04:21:54;19.40;51.00
19090;DHT22;9677;50.656;13.064;2023-09-12T04:24:22;19.40;51.10
19090;DHT22;9677;50.656;13.064;2023-09-12T04:26:51;19.90;51.30
19090;DHT22;9677;50.656;13.064;2023-09-12T04:29:20;19.40;51.10
19090;DHT22;9677;50.656;13.064;2023-09-12T04:31:48;19.30;51.20
19090;DHT22;9677;50.656;13.064;2023-09-12T04:34:19;19.30;51.20
19090;DHT22;9677;50.656;13.064;2023-09-12T04:36:47;19.30;51.20
19090;DHT22;9677;50.656;13.064;2023-09-12T04:39:16;19.30;51.30
19090;DHT22;9677;50.656;13.064;2023-09-12T04:41:44;19.20;51.30
19090;DHT22;9677;50.656;13.064;2023-09-12T04:44:12;19.20;51.40
19090;DHT22;9677;50.656;13.064;2023-09-12T04:46:42;19.20;51.40
19090;DHT22;9677;50.656;13.064;2023-09-12T04:49:10;19.20;51.50
19090;DHT22;9677;50.656;13.064;2023-09-12T04:51:38;19.30;51.50
19090;DHT22;9677;50.656;13.064;2023-09-12T04:54:07;19.10;51.50
19090;DHT22;9677;50.656;13.064;2023-09-12T04:56:35;19.10;51.50
19090;DHT22;9677;50.656;13.064;2023-09-12T04:59:03;19.10;51.60
19090;DHT22;9677;50.656;13.064;2023-09-12T05:01:33;19.10;51.60
19090;DHT22;9677;50.656;13.064;2023-09-12T05:04:03;19.00;51.60
19090;DHT22;9677;50.656;13.064;2023-09-12T05:06:32;19.00;51.70
19090;DHT22;9677;50.656;13.064;2023-09-12T05:09:00;19.00;51.70
19090;DHT22;9677;50.656;13.064;2023-09-12T05:11:29;19.00;51.90
19090;DHT22;9677;50.656;13.064;2023-09-12T05:13:58;19.00;51.90
19090;DHT22;9677;50.656;13.064;2023-09-12T05:16:27;19.00;51.90
19090;DHT22;9677;50.656;13.064;2023-09-12T05:18:55;19.20;52.00
19090;DHT22;9677;50.656;13.064;2023-09-12T05:21:32;19.60;52.20
19090;DHT22;9677;50.656;13.064;2023-09-12T05:24:00;19.00;51.60
19090;DHT22;9677;50.656;13.064;2023-09-12T05:26:29;20.30;52.30
19090;DHT22;9677;50.656;13.064;2023-09-12T05:28:58;19.00;51.60
19090;DHT22;9677;50.656;13.064;2023-09-12T05:31:26;20.40;52.50
19090;DHT22;9677;50.656;13.064;2023-09-12T05:33:55;19.00;51.80
19090;DHT22;9677;50.656;13.064;2023-09-12T05:36:24;19.00;52.50
19090;DHT22;9677;50.656;13.064;2023-09-12T05:38:55;19.60;52.00
19090;DHT22;9677;50.656;13.064;2023-09-12T05:41:26;20.30;52.70
19090;DHT22;9677;50.656;13.064;2023-09-12T05:43:55;19.10;51.90
19090;DHT22;9677;50.656;13.064;2023-09-12T05:46:24;19.00;52.40
19090;DHT22;9677;50.656;13.064;2023-09-12T05:48:53;19.10;52.00
19090;DHT22;9677;50.656;13.064;2023-09-12T05:51:25;18.90;52.10
19090;DHT22;9677;50.656;13.064;2023-09-12T05:53:55;19.00;52.40
19090;DHT22;9677;50.656;13.064;2023-09-12T05:56:25;19.20;52.40
19090;DHT22;9677;50.656;13.064;2023-09-12T05:58:53;19.70;52.50
19090;DHT22;9677;50.656;13.064;2023-09-12T06:01:23;18.90;52.30
19090;DHT22;9677;50.656;13.064;2023-09-12T06:03:52;18.90;52.30
19090;DHT22;9677;50.656;13.064;2023-09-12T06:06:21;19.90;52.80
19090;DHT22;9677;50.656;13.064;2023-09-12T06:08:50;19.50;52.70
19090;DHT22;9677;50.656;13.064;2023-09-12T06:11:22;19.40;52.50
19090;DHT22;9677;50.656;13.064;2023-09-12T06:13:50;18.90;52.50
19090;DHT22;9677;50.656;13.064;2023-09-12T06:16:19;19.10;52.60
19090;DHT22;9677;50.656;13.064;2023-09-12T06:18:48;19.30;52.50
19090;DHT22;9677;50.656;13.064;2023-09-12T06:21:17;19.20;52.50
19090;DHT22;9677;50.656;13.064;2023-09-12T06:23:45;19.10;52.70
19090;DHT22;9677;50.656;13.064;2023-09-12T06:42:27;19.20;53.20
19090;DHT22;9677;50.656;13.064;2023-09-12T06:44:55;19.30;53.10
19090;DHT22;9677;50.656;13.064;2023-09-12T06:47:24;19.30;53.00
19090;DHT22;9677;50.656;13.064;2023-09-12T06:49:53;19.30;53.10
19090;DHT22;9677;50.656;13.064;2023-09-12T07:12:43;19.70;53.80
19090;DHT22;9677;50.656;13.064;2023-09-12T07:21:15;19.90;54.00
19090;DHT22;9677;50.656;13.064;2023-09-12T07:23:44;19.90;53.60
19090;DHT22;9677;50.656;13.064;2023-09-12T07:26:13;20.00;53.70
19090;DHT22;9677;50.656;13.064;2023-09-12T07:28:43;20.10;53.90
19090;DHT22;9677;50.656;13.064;2023-09-12T07:31:12;20.10;53.90
19090;DHT22;9677;50.656;13.064;2023-09-12T07:33:41;20.40;53.70
19090;DHT22;9677;50.656;13.064;2023-09-12T07:36:10;20.60;53.90
19090;DHT22;9677;50.656;13.064;2023-09-12T07:38:39;21.20;54.20
19090;DHT22;9677;50.656;13.064;2023-09-12T07:41:10;21.40;54.30
19090;DHT22;9677;50.656;13.064;2023-09-12T07:43:38;20.50;53.70
19090;DHT22;9677;50.656;13.064;2023-09-12T07:46:10;21.80;54.40
19090;DHT22;9677;50.656;13.064;2023-09-12T07:48:39;21.30;54.20
19090;DHT22;9677;50.656;13.064;2023-09-12T07:51:12;21.30;54.20
19090;DHT22;9677;50.656;13.064;2023-09-12T07:53:41;20.80;54.30
19090;DHT22;9677;50.656;13.064;2023-09-12T07:56:10;20.90;54.10
19090;DHT22;9677;50.656;13.064;2023-09-12T07:58:38;21.00;54.20
19090;DHT22;9677;50.656;13.064;2023-09-12T08:01:07;21.10;54.20
19090;DHT22;9677;50.656;13.064;2023-09-12T08:03:39;21.20;54.20
19090;DHT22;9677;50.656;13.064;2023-09-12T08:06:09;21.30;54.40
19090;DHT22;9677;50.656;13.064;2023-09-12T08:08:37;21.40;54.20
19090;DHT22;9677;50.656;13.064;2023-09-12T08:11:05;21.50;54.20
19090;DHT22;9677;50.656;13.064;2023-09-12T08:13:34;21.50;54.10
19090;DHT22;9677;50.656;13.064;2023-09-12T08:16:02;21.60;54.10
19090;DHT22;9677;50.656;13.064;2023-09-12T08:18:31;21.70;54.10
19090;DHT22;9677;50.656;13.064;2023-09-12T08:21:00;21.80;54.10
19090;DHT22;9677;50.656;13.064;2023-09-12T08:23:29;21.90;54.10
19090;DHT22;9677;50.656;13.064;2023-09-12T08:25:57;22.00;54.10
19090;DHT22;9677;50.656;13.064;2023-09-12T08:28:25;22.10;54.00
19090;DHT22;9677;50.656;13.064;2023-09-12T08:30:53;22.20;53.90
19090;DHT22;9677;50.656;13.064;2023-09-12T08:33:22;22.30;54.00
19090;DHT22;9677;50.656;13.064;2023-09-12T08:35:52;22.80;54.20
19090;DHT22;9677;50.656;13.064;2023-09-12T08:38:22;22.50;54.00
19090;DHT22;9677;50.656;13.064;2023-09-12T08:40:51;22.60;54.00
19090;DHT22;9677;50.656;13.064;2023-09-12T08:43:20;22.80;54.00
19090;DHT22;9677;50.656;13.064;2023-09-12T08:45:48;23.20;54.10
19090;DHT22;9677;50.656;13.064;2023-09-12T08:48:17;22.90;53.80
19090;DHT22;9677;50.656;13.064;2023-09-12T08:50:51;22.90;53.80
19090;DHT22;9677;50.656;13.064;2023-09-12T08:53:22;23.10;53.80
19090;DHT22;9677;50.656;13.064;2023-09-12T08:55:52;23.10;53.60
19090;DHT22;9677;50.656;13.064;2023-09-12T08:58:21;23.50;53.80
19090;DHT22;9677;50.656;13.064;2023-09-12T09:00:50;23.30;53.50
19090;DHT22;9677;50.656;13.064;2023-09-12T09:03:19;23.60;53.50
19090;DHT22;9677;50.656;13.064;2023-09-12T09:05:49;23.50;53.10
19090;DHT22;9677;50.656;13.064;2023-09-12T09:08:21;23.60;52.90
19090;DHT22;9677;50.656;13.064;2023-09-12T09:10:57;23.70;52.80
19090;DHT22;9677;50.656;13.064;2023-09-12T09:13:25;24.30;53.10
19090;DHT22;9677;50.656;13.064;2023-09-12T09:16:09;23.90;52.60
19090;DHT22;9677;50.656;13.064;2023-09-12T09:18:55;24.00;52.80
19090;DHT22;9677;50.656;13.064;2023-09-12T09:21:25;24.20;52.90
19090;DHT22;9677;50.656;13.064;2023-09-12T09:24:00;24.20;52.50
19090;DHT22;9677;50.656;13.064;2023-09-12T09:26:41;24.30;52.50
19090;DHT22;9677;50.656;13.064;2023-09-12T09:29:14;24.50;52.40
19090;DHT22;9677;50.656;13.064;2023-09-12T09:31:44;24.50;52.30
19090;DHT22;9677;50.656;13.064;2023-09-12T09:34:14;24.70;52.30
19090;DHT22;9677;50.656;13.064;2023-09-12T09:36:44;24.80;52.20
19090;DHT22;9677;50.656;13.064;2023-09-12T09:39:17;25.10;52.10
19090;DHT22;9677;50.656;13.064;2023-09-12T09:41:47;25.00;51.80
19090;DHT22;9677;50.656;13.064;2023-09-12T09:44:16;25.20;51.80
19090;DHT22;9677;50.656;13.064;2023-09-12T09:46:45;25.40;51.90
19090;DHT22;9677;50.656;13.064;2023-09-12T09:49:15;25.60;51.90
19090;DHT22;9677;50.656;13.064;2023-09-12T09:51:44;25.70;51.80
19090;DHT22;9677;50.656;13.064;2023-09-12T09:54:14;25.90;51.70
19090;DHT22;9677;50.656;13.064;2023-09-12T09:56:47;26.50;51.80
19090;DHT22;9677;50.656;13.064;2023-09-12T09:59:18;26.50;51.50
19090;DHT22;9677;50.656;13.064;2023-09-12T10:01:48;26.40;52.00
19090;DHT22;9677;50.656;13.064;2023-09-12T10:04:18;26.60;51.20
19090;DHT22;9677;50.656;13.064;2023-09-12T10:06:46;26.90;51.10
19090;DHT22;9677;50.656;13.064;2023-09-12T10:09:16;27.10;51.00
19090;DHT22;9677;50.656;13.064;2023-09-12T10:11:47;27.30;50.80
19090;DHT22;9677;50.656;13.064;2023-09-12T10:14:19;27.50;50.70
19090;DHT22;9677;50.656;13.064;2023-09-12T10:16:49;27.70;50.40
19090;DHT22;9677;50.656;13.064;2023-09-12T10:19:20;27.90;50.40
19090;DHT22;9677;50.656;13.064;2023-09-12T10:21:58;28.30;50.40
19090;DHT22;9677;50.656;13.064;2023-09-12T10:24:32;28.50;50.30
19090;DHT22;9677;50.656;13.064;2023-09-12T10:27:04;28.60;50.10
19090;DHT22;9677;50.656;13.064;2023-09-12T10:29:34;28.90;49.70
19090;DHT22;9677;50.656;13.064;2023-09-12T10:32:03;29.20;49.60
19090;DHT22;9677;50.656;13.064;2023-09-12T10:34:32;29.30;49.30
19090;DHT22;9677;50.656;13.064;2023-09-12T10:37:03;29.50;48.90
19090;DHT22;9677;50.656;13.064;2023-09-12T10:39:34;29.70;48.70
19090;DHT22;9677;50.656;13.064;2023-09-12T10:42:05;29.90;48.40
19090;DHT22;9677;50.656;13.064;2023-09-12T10:44:34;30.20;48.00
19090;DHT22;9677;50.656;13.064;2023-09-12T10:47:03;30.40;47.80
19090;DHT22;9677;50.656;13.064;2023-09-12T10:49:32;30.60;47.80
19090;DHT22;9677;50.656;13.064;2023-09-12T10:52:00;30.70;47.30
19090;DHT22;9677;50.656;13.064;2023-09-12T10:54:36;31.00;47.20
19090;DHT22;9677;50.656;13.064;2023-09-12T10:57:07;31.00;46.20
19090;DHT22;9677;50.656;13.064;2023-09-12T11:00:11;31.30;46.70
19090;DHT22;9677;50.656;13.064;2023-09-12T11:02:40;31.40;45.90
19090;DHT22;9677;50.656;13.064;2023-09-12T11:05:37;31.50;46.20
19090;DHT22;9677;50.656;13.064;2023-09-12T11:08:06;31.70;45.30
19090;DHT22;9677;50.656;13.064;2023-09-12T11:10:36;31.90;45.60
19090;DHT22;9677;50.656;13.064;2023-09-12T11:13:17;32.00;45.50
19090;DHT22;9677;50.656;13.064;2023-09-12T11:16:10;32.30;44.40
19090;DHT22;9677;50.656;13.064;2023-09-12T11:19:12;32.30;44.20
19090;DHT22;9677;50.656;13.064;2023-09-12T11:21:46;32.50;44.10
19090;DHT22;9677;50.656;13.064;2023-09-12T11:24:16;32.70;44.70
19090;DHT22;9677;50.656;13.064;2023-09-12T11:26:56;32.90;44.00
19090;DHT22;9677;50.656;13.064;2023-09-12T11:29:34;32.90;43.30
19090;DHT22;9677;50.656;13.064;2023-09-12T11:32:04;33.10;43.60
19090;DHT22;9677;50.656;13.064;2023-09-12T11:34:37;33.20;44.00
19090;DHT22;9677;50.656;13.064;2023-09-12T11:37:06;33.30;43.10
19090;DHT22;9677;50.656;13.064;2023-09-12T11:39:35;33.40;43.10
19090;DHT22;9677;50.656;13.064;2023-09-12T11:42:05;33.60;43.20
19090;DHT22;9677;50.656;13.064;2023-09-12T11:44:38;33.60;42.90
19090;DHT22;9677;50.656;13.064;2023-09-12T11:47:08;33.70;42.70
19090;DHT22;9677;50.656;13.064;2023-09-12T11:49:39;33.70;42.10
19090;DHT22;9677;50.656;13.064;2023-09-12T11:52:09;33.90;42.20
19090;DHT22;9677;50.656;13.064;2023-09-12T11:54:39;34.00;42.90
19090;DHT22;9677;50.656;13.064;2023-09-12T11:57:09;34.00;42.20
19090;DHT22;9677;50.656;13.064;2023-09-12T11:59:41;34.10;41.90
19090;DHT22;9677;50.656;13.064;2023-09-12T12:02:11;34.20;41.90
19090;DHT22;9677;50.656;13.064;2023-09-12T12:04:40;34.30;41.90
19090;DHT22;9677;50.656;13.064;2023-09-12T12:07:09;34.30;42.20
19090;DHT22;9677;50.656;13.064;2023-09-12T12:09:38;34.40;41.60
19090;DHT22;9677;50.656;13.064;2023-09-12T12:12:11;34.70;41.50
19090;DHT22;9677;50.656;13.064;2023-09-12T12:14:42;34.50;40.90
19090;DHT22;9677;50.656;13.064;2023-09-12T12:17:12;34.60;40.80
19090;DHT22;9677;50.656;13.064;2023-09-12T12:19:45;34.70;40.70
19090;DHT22;9677;50.656;13.064;2023-09-12T12:22:13;34.90;40.60
19090;DHT22;9677;50.656;13.064;2023-09-12T12:24:44;34.80;40.60
19090;DHT22;9677;50.656;13.064;2023-09-12T12:27:14;34.90;40.20
19090;DHT22;9677;50.656;13.064;2023-09-12T12:29:45;35.10;40.50
19090;DHT22;9677;50.656;13.064;2023-09-12T12:32:15;34.90;39.90
19090;DHT22;9677;50.656;13.064;2023-09-12T12:34:47;35.00;39.80
19090;DHT22;9677;50.656;13.064;2023-09-12T12:37:36;35.00;39.60
19090;DHT22;9677;50.656;13.064;2023-09-12T12:40:06;34.90;39.40
19090;DHT22;9677;50.656;13.064;2023-09-12T12:42:40;35.00;38.90
19090;DHT22;9677;50.656;13.064;2023-09-12T12:45:23;35.10;39.00
19090;DHT22;9677;50.656;13.064;2023-09-12T12:48:00;34.90;38.70
19090;DHT22;9677;50.656;13.064;2023-09-12T12:50:29;34.90;38.80
19090;DHT22;9677;50.656;13.064;2023-09-12T12:52:57;34.80;38.90
19090;DHT22;9677;50.656;13.064;2023-09-12T12:55:26;34.80;38.70
19090;DHT22;9677;50.656;13.064;2023-09-12T12:57:54;34.90;39.00
19090;DHT22;9677;50.656;13.064;2023-09-12T13:00:24;34.80;38.90
19090;DHT22;9677;50.656;13.064;2023-09-12T13:02:52;34.80;38.50
19090;DHT22;9677;50.656;13.064;2023-09-12T13:05:24;34.80;38.70
19090;DHT22;9677;50.656;13.064;2023-09-12T13:07:53;34.80;38.70
19090;DHT22;9677;50.656;13.064;2023-09-12T13:10:22;34.80;38.40
19090;DHT22;9677;50.656;13.064;2023-09-12T13:12:51;34.80;38.50
19090;DHT22;9677;50.656;13.064;2023-09-12T13:15:19;34.80;38.50
19090;DHT22;9677;50.656;13.064;2023-09-12T13:17:49;34.80;38.30
19090;DHT22;9677;50.656;13.064;2023-09-12T13:20:17;34.70;38.00
19090;DHT22;9677;50.656;13.064;2023-09-12T13:22:47;34.70;38.20
19090;DHT22;9677;50.656;13.064;2023-09-12T13:25:15;34.70;38.30
19090;DHT22;9677;50.656;13.064;2023-09-12T13:27:44;34.70;38.40
19090;DHT22;9677;50.656;13.064;2023-09-12T13:30:12;34.60;38.30
19090;DHT22;9677;50.656;13.064;2023-09-12T13:32:41;34.70;38.50
19090;DHT22;9677;50.656;13.064;2023-09-12T13:35:10;34.70;38.30
19090;DHT22;9677;50.656;13.064;2023-09-12T13:37:38;34.70;38.10
19090;DHT22;9677;50.656;13.064;2023-09-12T13:40:08;34.70;38.10
19090;DHT22;9677;50.656;13.064;2023-09-12T13:42:37;34.70;38.10
19090;DHT22;9677;50.656;13.064;2023-09-12T13:45:06;34.70;38.10
19090;DHT22;9677;50.656;13.064;2023-09-12T13:47:35;34.70;38.20
19090;DHT22;9677;50.656;13.064;2023-09-12T13:50:05;34.70;38.20
19090;DHT22;9677;50.656;13.064;2023-09-12T13:52:35;34.70;38.20
19090;DHT22;9677;50.656;13.064;2023-09-12T13:55:04;34.60;38.10
19090;DHT22;9677;50.656;13.064;2023-09-12T13:57:32;34.60;38.00
19090;DHT22;9677;50.656;13.064;2023-09-12T14:00:14;34.60;38.20
19090;DHT22;9677;50.656;13.064;2023-09-12T14:02:44;34.60;38.30
19090;DHT22;9677;50.656;13.064;2023-09-12T14:05:12;34.60;38.20
19090;DHT22;9677;50.656;13.064;2023-09-12T14:07:43;34.40;38.00
19090;DHT22;9677;50.656;13.064;2023-09-12T14:10:13;34.60;38.10
19090;DHT22;9677;50.656;13.064;2023-09-12T14:13:00;34.50;37.80
19090;DHT22;9677;50.656;13.064;2023-09-12T14:15:45;34.50;38.00
19090;DHT22;9677;50.656;13.064;2023-09-12T14:18:14;34.50;38.10
19090;DHT22;9677;50.656;13.064;2023-09-12T14:20:43;34.50;38.00
19090;DHT22;9677;50.656;13.064;2023-09-12T14:23:13;34.40;37.90
19090;DHT22;9677;50.656;13.064;2023-09-12T14:25:41;34.40;37.70
19090;DHT22;9677;50.656;13.064;2023-09-12T14:28:09;34.40;37.60
19090;DHT22;9677;50.656;13.064;2023-09-12T14:30:37;34.30;37.70
19090;DHT22;9677;50.656;13.064;2023-09-12T14:33:11;34.30;37.80
19090;DHT22;9677;50.656;13.064;2023-09-12T14:35:44;34.30;37.80
19090;DHT22;9677;50.656;13.064;2023-09-12T14:38:14;34.20;37.70
19090;DHT22;9677;50.656;13.064;2023-09-12T14:40:42;34.20;37.80
19090;DHT22;9677;50.656;13.064;2023-09-12T14:43:11;34.20;38.00
19090;DHT22;9677;50.656;13.064;2023-09-12T14:45:40;34.10;37.80
19090;DHT22;9677;50.656;13.064;2023-09-12T14:48:09;34.10;37.80
19090;DHT22;9677;50.656;13.064;2023-09-12T14:50:37;34.10;37.60
19090;DHT22;9677;50.656;13.064;2023-09-12T14:53:10;34.10;37.50
19090;DHT22;9677;50.656;13.064;2023-09-12T14:55:41;34.00;37.40
19090;DHT22;9677;50.656;13.064;2023-09-12T14:58:09;34.00;37.50
19090;DHT22;9677;50.656;13.064;2023-09-12T15:00:37;34.00;37.30
19090;DHT22;9677;50.656;13.064;2023-09-12T15:03:06;34.00;37.80
19090;DHT22;9677;50.656;13.064;2023-09-12T15:05:34;33.90;37.70
19090;DHT22;9677;50.656;13.064;2023-09-12T15:08:03;33.90;37.70
19090;DHT22;9677;50.656;13.064;2023-09-12T15:10:33;33.90;37.80
19090;DHT22;9677;50.656;13.064;2023-09-12T15:13:03;33.90;37.60
19090;DHT22;9677;50.656;13.064;2023-09-12T15:15:32;33.80;37.70
19090;DHT22;9677;50.656;13.064;2023-09-12T15:18:00;33.60;37.70
19090;DHT22;9677;50.656;13.064;2023-09-12T15:20:29;33.70;37.60
19090;DHT22;9677;50.656;13.064;2023-09-12T15:22:58;33.70;37.80
19090;DHT22;9677;50.656;13.064;2023-09-12T15:25:26;33.70;37.70
19090;DHT22;9677;50.656;13.064;2023-09-12T15:27:54;33.70;38.00
19090;DHT22;9677;50.656;13.064;2023-09-12T15:30:24;33.60;38.00
19090;DHT22;9677;50.656;13.064;2023-09-12T15:32:52;33.90;37.90
19090;DHT22;9677;50.656;13.064;2023-09-12T15:35:21;33.60;37.90
19090;DHT22;9677;50.656;13.064;2023-09-12T15:37:49;33.60;37.80
19090;DHT22;9677;50.656;13.064;2023-09-12T15:40:18;33.50;37.90
19090;DHT22;9677;50.656;13.064;2023-09-12T15:42:46;33.70;38.10
19090;DHT22;9677;50.656;13.064;2023-09-12T15:45:14;33.50;37.80
19090;DHT22;9677;50.656;13.064;2023-09-12T15:47:48;33.50;37.80
19090;DHT22;9677;50.656;13.064;2023-09-12T15:50:17;33.50;37.80
19090;DHT22;9677;50.656;13.064;2023-09-12T15:52:45;33.40;37.80
19090;DHT22;9677;50.656;13.064;2023-09-12T15:55:13;33.40;37.80
19090;DHT22;9677;50.656;13.064;2023-09-12T15:57:41;33.40;37.70
19090;DHT22;9677;50.656;13.064;2023-09-12T16:00:11;33.30;37.80
19090;DHT22;9677;50.656;13.064;2023-09-12T16:02:41;33.20;37.80
19090;DHT22;9677;50.656;13.064;2023-09-12T16:05:11;33.20;37.80
19090;DHT22;9677;50.656;13.064;2023-09-12T16:07:39;33.20;37.90
19090;DHT22;9677;50.656;13.064;2023-09-12T16:10:09;33.20;37.70
19090;DHT22;9677;50.656;13.064;2023-09-12T16:12:39;33.10;37.80
19090;DHT22;9677;50.656;13.064;2023-09-12T16:15:08;33.10;37.90
19090;DHT22;9677;50.656;13.064;2023-09-12T16:17:37;33.10;38.00
19090;DHT22;9677;50.656;13.064;2023-09-12T16:20:11;33.00;37.90
19090;DHT22;9677;50.656;13.064;2023-09-12T16:22:40;33.00;37.90
19090;DHT22;9677;50.656;13.064;2023-09-12T16:25:09;33.00;37.90
19090;DHT22;9677;50.656;13.064;2023-09-12T16:27:37;32.90;37.80
19090;DHT22;9677;50.656;13.064;2023-09-12T16:30:06;32.90;37.70
19090;DHT22;9677;50.656;13.064;2023-09-12T16:32:37;32.80;37.70